Port Arthur, Texas
Current Conditions -  °F | °C
As of 7:53 AM on Sunday 25 Jan 2015 (Local Time) from KBPT Reporting Station
Haze Haze  
Wind Chill: 41°   Ceiling: Unl
Heat Index: 44°   Visibility: 6mi
Dew Point: 43°   Wind: 6mph
Humidity: 96%   Direction: 220°SW
Pressure: 30.02"   Gusts: NA
Location:  29.9°N, 93.93°W
Report Text: KBPT 251353Z 22005KT 6SM BR CLR 07/06 A3002 RMK AO2 SLP166 T00670061
Loading
Personal Weather Stations






























Interactive Weather Map New forecast layout! Learn more

10-Day Weather Forecast

Advertisements
Track Severe Weather on mobile